Bookmark and Share
Track history (hours):
 

Kaprifol

Last reported at 2014-Apr-23 12:24 UTC. Time now 2014-Apr-24 00:26 UTC.
Position N 56°12' E 006°49'.

Length 90 m; draft 5.8 m.

Type: Tanker. MMSI: 210445000.

NotesDate/timePositionNaut miles runAvg speedWind from/ knotsBaromVisibWave heightAir tempDewpointWater temp
2014-Apr-23 12:24N 56°12' E 006°49'1010.6
2014-Apr-23 11:28N 56°04' E 006°57'2210.8
2014-Apr-23 09:27N 55°44' E 007°14'1010.9
2014-Apr-23 08:33N 55°35' E 007°22'1111.0
2014-Apr-23 07:33N 55°29' E 007°38'1110.8
2014-Apr-23 06:33N 55°25' E 007°56'1010.2
2014-Apr-23 05:33N 55°25' E 008°14'7 3.7
2014-Apr-23 03:32N 55°28' E 008°26'0 0.0
2014-Apr-23 02:32N 55°28' E 008°26'0 0.0
2014-Apr-23 01:32N 55°28' E 008°26'0 0.0
2014-Apr-23 00:29N 55°28' E 008°26'0 0.0
2014-Apr-22 23:29N 55°28' E 008°26'0 0.0
2014-Apr-22 22:23N 55°28' E 008°26'0 0.0
2014-Apr-22 21:26N 55°28' E 008°26'0 0.0
2014-Apr-22 20:29N 55°28' E 008°26'0 0.0
2014-Apr-22 19:32N 55°28' E 008°26'0 0.0
2014-Apr-22 18:26N 55°28' E 008°26'0 0.0
2014-Apr-22 17:26N 55°28' E 008°26'3 2.9
2014-Apr-22 16:33N 55°29' E 008°21'8 8.5
2014-Apr-22 15:33N 55°23' E 008°10'3 3.5
2014-Apr-22 14:33N 55°20' E 008°07'4 3.6
2014-Apr-22 13:33N 55°22' E 008°01'4 3.8
2014-Apr-22 12:33N 55°24' E 007°56'3 3.2
2014-Apr-22 11:33N 55°22' E 007°51'5 5.3
2014-Apr-22 10:33N 55°17' E 007°49'7 7.3
2014-Apr-22 09:33N 55°12' E 007°40'10 9.8
2014-Apr-22 08:33N 55°06' E 007°26'10 9.7
2014-Apr-22 07:33N 55°00' E 007°12'9 9.1
2014-Apr-22 06:33N 54°55' E 006°59'6 6.3
2014-Apr-22 05:33N 54°52' E 006°50'7 5.6
2014-Apr-22 04:19N 54°48' E 006°40'106 7.1
2014-Apr-21 13:23N 53°26' E 004°43'3110.0
2014-Apr-21 10:17N 52°58' E 004°20'811.2
2014-Apr-21 09:33N 52°51' E 004°13'1111.2
2014-Apr-21 08:33N 52°42' E 004°05'1111.2
2014-Apr-21 07:33N 52°32' E 003°56'7 7.2
2014-Apr-21 06:33N 52°24' E 003°53'1211.6
2014-Apr-21 05:33N 52°13' E 003°54'1110.6
2014-Apr-21 04:33N 52°02' E 003°56'1010.0
2014-Apr-21 03:32N 51°57' E 004°10'10 9.8
2014-Apr-21 02:33N 51°51' E 004°22'1010.1
2014-Apr-21 01:33N 51°48' E 004°37'1 0.6
2014-Apr-21 00:32N 51°47' E 004°38'0 0.0
2014-Apr-20 23:32N 51°47' E 004°38'0 0.0
2014-Apr-20 22:29N 51°47' E 004°38'0 0.0
2014-Apr-20 21:32N 51°47' E 004°38'0 0.0
2014-Apr-20 20:32N 51°47' E 004°38'0 0.0
2014-Apr-20 19:32N 51°47' E 004°38'0 0.0
2014-Apr-20 18:32N 51°47' E 004°38'0 0.0
2014-Apr-20 17:29N 51°47' E 004°38'0 0.0
2014-Apr-20 16:32N 51°47' E 004°38'0 0.0
2014-Apr-20 15:29N 51°47' E 004°38'0 0.0
2014-Apr-20 14:32N 51°47' E 004°38'0 0.3
2014-Apr-20 13:34N 51°48' E 004°38'6 6.0
2014-Apr-20 12:33N 51°50' E 004°29'7 6.8
2014-Apr-20 11:33N 51°53' E 004°19'7 7.3
2014-Apr-20 10:33N 51°57' E 004°09'8 7.6
2014-Apr-20 09:30N 52°00' E 003°57'8 8.2
2014-Apr-20 08:33N 52°05' E 003°47'10 9.6
2014-Apr-20 07:33N 52°14' E 003°47'9 9.3
2014-Apr-20 06:33N 52°24' E 003°49'9 8.9
2014-Apr-20 05:33N 52°32' E 003°52'9 9.0
2014-Apr-20 04:33N 52°41' E 003°55'1010.1
2014-Apr-20 03:33N 52°51' E 003°58'1110.4
2014-Apr-20 02:32N 53°00' E 004°06'1111.4
2014-Apr-20 01:32N 53°08' E 004°20'3410.7
2014-Apr-19 22:24N 53°40' E 004°40'15310.0
2014-Apr-19 07:09N 56°12' E 004°28'18110.1
2014-Apr-18 13:15N 59°13' E 004°02'202 4.8
2014-Apr-16 19:11N 62°27' E 005°57'7 0.6
2014-Apr-16 06:33N 62°27' E 006°12'4 3.5
2014-Apr-16 05:24N 62°26' E 006°20'0 0.0
2014-Apr-16 04:24N 62°26' E 006°20'0 0.0
2014-Apr-16 03:29N 62°26' E 006°20'0 0.0
2014-Apr-16 00:05N 62°26' E 006°20'0 0.0
2014-Apr-15 23:30N 62°26' E 006°20'0 0.0
2014-Apr-15 22:23N 62°26' E 006°20'0 0.0
2014-Apr-15 21:17N 62°26' E 006°20'0 0.0
2014-Apr-15 20:05N 62°26' E 006°20'0 0.5
2014-Apr-15 19:33N 62°26' E 006°19'7 6.8
2014-Apr-15 18:33N 62°29' E 006°06'9 8.6
2014-Apr-15 17:33N 62°36' E 006°16'  

Dump ship's entire track history

sailing weather and tide predictions

Kaprifol — 5BXX2 — position and weather